createdAt,value
2022-08-01T00:01:14.261Z,86.96
2022-08-01T00:03:41.124Z,87.00
2022-08-01T00:06:07.969Z,86.82
2022-08-01T00:08:34.836Z,88.77
2022-08-01T00:11:02.948Z,88.88
2022-08-01T00:13:29.920Z,89.13
2022-08-01T00:15:56.799Z,88.64
2022-08-01T00:18:23.823Z,88.81
2022-08-01T00:20:50.680Z,89.72
2022-08-01T00:23:17.502Z,90.01
2022-08-01T00:25:44.363Z,90.00
2022-08-01T00:28:11.251Z,90.25
2022-08-01T00:30:38.056Z,90.23
2022-08-01T00:33:04.888Z,91.58
2022-08-01T00:35:31.700Z,91.50
2022-08-01T00:37:58.601Z,92.20
2022-08-01T00:40:25.468Z,91.71
2022-08-01T00:42:52.385Z,91.82
2022-08-01T00:45:19.241Z,91.76
2022-08-01T00:47:46.071Z,92.77
2022-08-01T00:50:12.913Z,92.96
2022-08-01T00:52:40.692Z,92.60
2022-08-01T00:55:08.407Z,92.64
2022-08-01T00:58:03.717Z,92.47
2022-08-01T01:00:27.668Z,92.76
2022-08-01T01:02:54.558Z,93.83
2022-08-01T01:05:21.422Z,93.11
2022-08-01T01:07:49.778Z,91.97
2022-08-01T01:10:21.544Z,94.14
2022-08-01T01:12:52.616Z,94.35
2022-08-01T01:15:22.505Z,93.10
2022-08-01T01:17:52.638Z,93.65
2022-08-01T01:20:21.724Z,93.02
2022-08-01T01:22:54.655Z,92.91
2022-08-01T01:25:26.860Z,94.54
2022-08-01T01:28:02.483Z,94.75
2022-08-01T01:30:31.043Z,93.90
2022-08-01T01:33:00.790Z,93.34
2022-08-01T01:35:29.284Z,94.75
2022-08-01T01:37:59.062Z,93.89
2022-08-01T01:40:26.621Z,94.36
2022-08-01T01:42:55.876Z,94.07
2022-08-01T01:45:24.695Z,94.17
2022-08-01T01:47:52.405Z,93.06
2022-08-01T01:50:20.868Z,92.72
2022-08-01T01:52:49.677Z,91.43
2022-08-01T01:55:17.011Z,92.06
2022-08-01T01:57:45.082Z,93.01
2022-08-01T02:00:13.061Z,92.62
2022-08-01T02:02:41.615Z,92.57
2022-08-01T02:05:10.709Z,92.26
2022-08-01T02:07:37.879Z,92.28
2022-08-01T02:10:05.744Z,93.98
2022-08-01T02:12:35.747Z,93.57
2022-08-01T02:15:04.485Z,93.92
2022-08-01T02:17:31.778Z,93.04
2022-08-01T02:19:59.073Z,92.10
2022-08-01T02:22:34.739Z,92.93
2022-08-01T02:25:01.562Z,92.26
2022-08-01T02:27:35.173Z,92.71
2022-08-01T02:30:09.325Z,91.13
2022-08-01T02:32:40.789Z,91.31
2022-08-01T02:35:27.997Z,91.60
2022-08-01T02:37:56.068Z,91.81
2022-08-01T02:40:23.328Z,91.81
2022-08-01T02:42:51.224Z,91.45
2022-08-01T02:45:23.299Z,91.97
2022-08-01T02:47:50.804Z,92.20
2022-08-01T02:50:18.785Z,92.19
2022-08-01T02:52:48.144Z,92.71
2022-08-01T02:55:15.680Z,90.87
2022-08-01T02:57:52.290Z,91.62
2022-08-01T03:00:19.678Z,90.60
2022-08-01T03:02:47.438Z,91.15
2022-08-01T03:05:14.541Z,90.55
2022-08-01T03:07:42.290Z,91.36
2022-08-01T03:10:10.046Z,91.67
2022-08-01T03:12:37.764Z,91.15
2022-08-01T03:15:05.710Z,90.32
2022-08-01T03:17:33.196Z,91.40
2022-08-01T03:20:03.000Z,91.07
2022-08-01T03:22:30.672Z,90.23
2022-08-01T03:24:58.345Z,89.98
2022-08-01T03:27:25.548Z,90.33
2022-08-01T03:29:52.965Z,89.85
2022-08-01T03:32:21.020Z,88.77
2022-08-01T03:34:47.979Z,88.53
2022-08-01T03:37:24.097Z,89.15
2022-08-01T03:40:10.776Z,89.88
2022-08-01T03:42:46.642Z,90.49
2022-08-01T03:45:20.000Z,89.65
2022-08-01T03:47:47.645Z,89.86
2022-08-01T03:50:15.021Z,90.30
2022-08-01T03:52:44.459Z,89.78
2022-08-01T03:55:12.495Z,88.47
2022-08-01T03:57:39.723Z,88.35
2022-08-01T04:00:07.029Z,88.57
2022-08-01T04:02:39.701Z,89.63
2022-08-01T04:05:06.729Z,89.64
2022-08-01T04:07:34.015Z,89.28
2022-08-01T04:10:00.878Z,89.57
2022-08-01T04:12:27.873Z,88.36
2022-08-01T04:14:54.703Z,88.05
2022-08-01T04:17:21.548Z,87.99
2022-08-01T04:19:48.395Z,88.34
2022-08-01T04:22:15.874Z,87.92
2022-08-01T04:24:45.330Z,88.17
2022-08-01T04:27:18.245Z,88.88
2022-08-01T04:30:06.630Z,88.38
2022-08-01T04:32:35.367Z,88.15
2022-08-01T04:35:05.931Z,88.73
2022-08-01T04:37:50.955Z,87.75
2022-08-01T04:40:18.374Z,89.94
2022-08-01T04:42:45.404Z,90.47
2022-08-01T04:45:12.629Z,89.81
2022-08-01T04:47:40.405Z,89.58
2022-08-01T04:50:07.996Z,89.71
2022-08-01T04:52:38.157Z,89.59
2022-08-01T04:55:05.989Z,89.83
2022-08-01T04:57:35.904Z,89.67
2022-08-01T05:00:03.396Z,89.76
2022-08-01T05:02:30.243Z,89.03
2022-08-01T05:04:57.086Z,88.80
2022-08-01T05:07:23.978Z,88.33
2022-08-01T05:09:50.861Z,87.95
2022-08-01T05:12:17.761Z,87.49
2022-08-01T05:14:44.791Z,86.76
2022-08-01T05:17:11.635Z,87.75
2022-08-01T05:19:39.090Z,88.06
2022-08-01T05:22:07.208Z,88.04
2022-08-01T05:24:34.986Z,88.70
2022-08-01T05:27:03.625Z,88.54
2022-08-01T05:29:30.779Z,87.91
2022-08-01T05:31:57.673Z,88.03
2022-08-01T05:34:24.506Z,87.26
2022-08-01T05:36:56.701Z,87.39
2022-08-01T05:39:24.783Z,86.02
2022-08-01T05:41:51.622Z,86.18
2022-08-01T05:44:18.462Z,85.80
2022-08-01T05:46:45.285Z,85.82
2022-08-01T05:49:12.177Z,84.39
2022-08-01T05:51:39.135Z,82.47
2022-08-01T05:54:06.205Z,83.59
2022-08-01T05:56:33.062Z,84.98
2022-08-01T05:58:59.920Z,84.41
2022-08-01T06:01:26.765Z,84.95
2022-08-01T06:03:53.599Z,84.84
2022-08-01T06:06:20.986Z,82.70
2022-08-01T06:08:52.420Z,84.01
2022-08-01T06:11:19.253Z,81.81
2022-08-01T06:13:48.623Z,81.52
2022-08-01T06:16:16.243Z,79.95
2022-08-01T06:21:09.753Z,79.76
2022-08-01T06:23:36.600Z,78.62
2022-08-01T06:26:03.507Z,79.68
2022-08-01T06:28:30.610Z,78.51
2022-08-01T06:30:57.482Z,78.15
2022-08-01T06:33:24.348Z,78.24
2022-08-01T06:35:51.182Z,79.15
2022-08-01T06:38:18.258Z,78.60
2022-08-01T06:40:45.080Z,77.51
2022-08-01T06:43:11.989Z,78.14
2022-08-01T06:45:39.473Z,78.54
2022-08-01T06:48:06.331Z,76.59
2022-08-01T06:50:33.490Z,76.40
2022-08-01T06:53:00.325Z,75.49
2022-08-01T06:55:27.216Z,76.13
2022-08-01T06:57:54.114Z,75.81
2022-08-01T07:00:22.613Z,74.31
2022-08-01T07:02:53.276Z,74.37
2022-08-01T07:05:20.867Z,73.81
2022-08-01T07:07:47.709Z,73.36
2022-08-01T07:10:14.585Z,73.84
2022-08-01T07:12:41.913Z,73.84
2022-08-01T07:15:12.151Z,75.54
2022-08-01T07:17:39.973Z,74.02
2022-08-01T07:20:11.360Z,73.01
2022-08-01T07:22:38.604Z,73.45
2022-08-01T07:25:05.909Z,72.21
2022-08-01T07:27:32.955Z,72.97
2022-08-01T07:30:03.137Z,71.40
2022-08-01T07:32:29.961Z,71.05
2022-08-01T07:34:56.883Z,71.97
2022-08-01T07:37:44.329Z,70.73
2022-08-01T07:40:11.671Z,70.94
2022-08-01T07:42:38.675Z,69.82
2022-08-01T07:45:05.713Z,71.16
2022-08-01T07:47:32.573Z,71.95
2022-08-01T07:50:00.500Z,70.36
2022-08-01T07:52:27.361Z,69.85
2022-08-01T07:54:54.221Z,69.07
2022-08-01T07:57:21.129Z,68.30
2022-08-01T07:59:47.959Z,69.29
2022-08-01T08:02:14.982Z,65.93
2022-08-01T08:04:44.663Z,64.74
2022-08-01T08:07:15.335Z,67.35
2022-08-01T08:09:42.192Z,68.22
2022-08-01T08:12:09.632Z,66.97
2022-08-01T08:14:36.989Z,66.46
2022-08-01T08:17:04.343Z,64.78
2022-08-01T08:19:37.483Z,66.08
2022-08-01T08:22:06.494Z,62.80
2022-08-01T08:24:33.555Z,62.58
2022-08-01T08:27:01.379Z,62.98
2022-08-01T08:29:28.943Z,63.37
2022-08-01T08:31:57.163Z,62.83
2022-08-01T08:34:24.890Z,63.79
2022-08-01T08:36:52.111Z,64.00
2022-08-01T08:39:19.850Z,62.98
2022-08-01T08:41:49.116Z,63.35
2022-08-01T08:44:16.942Z,63.03
2022-08-01T08:46:47.647Z,60.84
2022-08-01T08:49:22.404Z,59.16
2022-08-01T08:51:50.188Z,60.36
2022-08-01T08:54:17.717Z,57.54
2022-08-01T08:56:45.369Z,57.58
2022-08-01T08:59:13.323Z,56.68
2022-08-01T09:01:40.226Z,58.42
2022-08-01T09:04:07.079Z,59.02
2022-08-01T09:06:34.089Z,59.81
2022-08-01T09:09:00.979Z,60.86
2022-08-01T09:11:27.842Z,61.90
2022-08-01T09:14:03.644Z,60.62
2022-08-01T09:16:31.589Z,61.39
2022-08-01T09:19:39.515Z,62.58
2022-08-01T09:22:07.092Z,61.65
2022-08-01T09:24:34.913Z,61.23
2022-08-01T09:27:03.290Z,62.10
2022-08-01T09:29:37.085Z,61.56
2022-08-01T09:32:07.059Z,60.46
2022-08-01T09:34:34.213Z,60.24
2022-08-01T09:37:02.716Z,57.83
2022-08-01T09:39:30.748Z,57.21
2022-08-01T09:41:59.299Z,58.13
2022-08-01T09:44:55.204Z,59.19
2022-08-01T09:47:23.756Z,57.83
2022-08-01T09:49:57.398Z,59.50
2022-08-01T09:52:27.853Z,57.45
2022-08-01T09:54:57.313Z,57.22
2022-08-01T09:57:24.534Z,55.63
2022-08-01T10:00:01.049Z,55.74
2022-08-01T10:02:28.601Z,55.35
2022-08-01T10:05:03.406Z,55.83
2022-08-01T10:07:43.532Z,53.93
2022-08-01T10:10:12.921Z,53.09
2022-08-01T10:12:45.259Z,53.76
2022-08-01T10:15:15.408Z,53.02
2022-08-01T10:17:51.301Z,52.94
2022-08-01T10:20:30.875Z,55.27
2022-08-01T10:23:00.302Z,55.95
2022-08-01T10:25:42.782Z,53.40
2022-08-01T10:28:21.538Z,51.53
2022-08-01T10:30:52.175Z,49.84
2022-08-01T10:33:51.333Z,49.25
2022-08-01T10:36:09.669Z,50.50
2022-08-01T10:38:37.261Z,48.03
2022-08-01T10:41:05.987Z,47.17
2022-08-01T10:43:35.365Z,48.98
2022-08-01T10:46:04.014Z,49.41
2022-08-01T10:48:33.920Z,50.20
2022-08-01T10:51:04.879Z,48.19
2022-08-01T10:53:50.840Z,49.10
2022-08-01T10:56:26.781Z,48.78
2022-08-01T10:59:15.409Z,45.92
2022-08-01T11:01:45.193Z,45.93
2022-08-01T11:04:17.918Z,46.42
2022-08-01T11:07:02.244Z,49.31
2022-08-01T11:09:39.010Z,48.23
2022-08-01T11:12:13.496Z,46.59
2022-08-01T11:14:59.814Z,47.02
2022-08-01T11:17:41.833Z,46.96
2022-08-01T11:20:13.868Z,47.41
2022-08-01T11:22:59.586Z,47.73
2022-08-01T11:26:05.070Z,46.95
2022-08-01T11:28:28.200Z,46.82
2022-08-01T11:30:55.694Z,47.57
2022-08-01T11:33:49.434Z,47.80
2022-08-01T11:36:16.362Z,48.26
2022-08-01T11:38:47.860Z,49.31
2022-08-01T11:41:14.686Z,48.84
2022-08-01T11:44:02.155Z,49.94
2022-08-01T11:46:48.240Z,48.95
2022-08-01T11:49:29.127Z,50.18
2022-08-01T11:51:57.995Z,46.42
2022-08-01T11:54:34.923Z,47.10
2022-08-01T11:57:08.179Z,47.16
2022-08-01T12:00:02.918Z,48.17
2022-08-01T12:02:59.810Z,49.10
2022-08-01T12:05:27.785Z,47.91
2022-08-01T12:07:58.368Z,47.37
2022-08-01T12:10:26.516Z,48.70
2022-08-01T12:12:54.953Z,47.78
2022-08-01T12:15:22.933Z,48.71
2022-08-01T12:17:58.143Z,46.81
2022-08-01T12:20:32.958Z,45.71
2022-08-01T12:23:01.173Z,46.39
2022-08-01T12:25:28.614Z,46.06
2022-08-01T12:27:56.820Z,47.17
2022-08-01T12:30:24.380Z,45.46
2022-08-01T12:32:51.988Z,44.46
2022-08-01T12:35:20.047Z,47.47
2022-08-01T12:37:48.349Z,45.64
2022-08-01T12:40:28.445Z,45.65
2022-08-01T12:42:59.212Z,46.27
2022-08-01T12:45:27.483Z,46.84
2022-08-01T12:47:55.190Z,46.34
2022-08-01T12:50:23.243Z,46.85
2022-08-01T12:52:50.873Z,46.50
2022-08-01T12:55:21.967Z,48.17
2022-08-01T12:57:50.096Z,46.74
2022-08-01T13:00:27.175Z,46.73
2022-08-01T13:03:02.893Z,48.65
2022-08-01T13:05:41.375Z,46.95
2022-08-01T13:08:12.393Z,46.49
2022-08-01T13:10:39.392Z,46.22
2022-08-01T13:13:06.231Z,46.35
2022-08-01T13:15:34.063Z,46.21
2022-08-01T13:18:02.089Z,46.18
2022-08-01T13:20:30.616Z,46.09
2022-08-01T13:23:11.066Z,47.85
2022-08-01T13:25:55.042Z,46.14
2022-08-01T13:28:25.844Z,44.94
2022-08-01T13:30:56.842Z,45.18
2022-08-01T13:33:24.423Z,45.08
2022-08-01T13:35:53.993Z,44.47
2022-08-01T13:38:21.198Z,45.06
2022-08-01T13:40:48.009Z,44.85
2022-08-01T13:43:14.865Z,45.64
2022-08-01T13:45:41.840Z,44.86
2022-08-01T13:48:19.050Z,45.13
2022-08-01T13:50:57.442Z,43.01
2022-08-01T13:53:34.014Z,46.08
2022-08-01T13:56:00.860Z,44.22
2022-08-01T13:58:27.752Z,45.38
2022-08-01T14:00:54.596Z,44.38
2022-08-01T14:03:21.450Z,47.39
2022-08-01T14:06:01.026Z,45.63
2022-08-01T14:08:27.914Z,45.37
2022-08-01T14:10:54.893Z,46.23
2022-08-01T14:13:23.697Z,46.28
2022-08-01T14:15:50.980Z,46.04
2022-08-01T14:18:17.928Z,45.77
2022-08-01T14:20:44.887Z,46.52
2022-08-01T14:23:12.168Z,45.96
2022-08-01T14:26:03.205Z,45.87
2022-08-01T14:28:26.881Z,42.83
2022-08-01T14:30:53.731Z,44.16
2022-08-01T14:33:20.569Z,44.17
2022-08-01T14:36:05.218Z,44.94
2022-08-01T14:38:34.338Z,46.69
2022-08-01T14:41:01.930Z,45.53
2022-08-01T14:43:33.171Z,45.90
2022-08-01T14:46:01.161Z,46.94
2022-08-01T14:48:28.046Z,46.70
2022-08-01T14:50:57.385Z,48.59
2022-08-01T14:53:24.234Z,44.99
2022-08-01T14:55:51.109Z,45.81
2022-08-01T14:58:17.978Z,46.02
2022-08-01T15:00:44.919Z,45.93
2022-08-01T15:03:11.838Z,45.84
2022-08-01T15:05:38.923Z,47.53
2022-08-01T15:08:06.955Z,47.69
2022-08-01T15:10:33.853Z,46.83
2022-08-01T15:13:00.687Z,47.32
2022-08-01T15:15:28.062Z,48.92
2022-08-01T15:17:54.972Z,47.62
2022-08-01T15:20:21.801Z,49.37
2022-08-01T15:22:48.648Z,49.52
2022-08-01T15:25:15.547Z,50.19
2022-08-01T15:27:42.365Z,50.47
2022-08-01T15:30:09.293Z,52.41
2022-08-01T15:32:36.145Z,52.63
2022-08-01T15:35:03.201Z,54.33
2022-08-01T15:37:30.010Z,53.85
2022-08-01T15:39:56.927Z,55.28
2022-08-01T15:42:25.678Z,56.63
2022-08-01T15:44:54.313Z,56.46
2022-08-01T15:47:21.224Z,57.62
2022-08-01T15:49:52.144Z,56.95
2022-08-01T15:52:21.851Z,57.12
2022-08-01T15:54:49.968Z,56.08
2022-08-01T15:57:16.921Z,56.81
2022-08-01T15:59:43.769Z,57.21
2022-08-01T16:02:11.175Z,56.90
2022-08-01T16:04:38.763Z,55.16
2022-08-01T16:07:06.193Z,55.15
2022-08-01T16:09:33.066Z,55.00
2022-08-01T16:12:00.004Z,54.49
2022-08-01T16:14:26.847Z,53.43
2022-08-01T16:16:56.335Z,52.17
2022-08-01T16:19:23.169Z,52.63
2022-08-01T16:21:49.992Z,54.76
2022-08-01T16:24:16.836Z,55.84
2022-08-01T16:26:43.709Z,54.77
2022-08-01T16:29:10.528Z,54.33
2022-08-01T16:31:46.097Z,53.03
2022-08-01T16:34:24.227Z,53.90
2022-08-01T16:36:51.186Z,53.29
2022-08-01T16:39:22.804Z,55.52
2022-08-01T16:42:05.420Z,55.91
2022-08-01T16:44:34.113Z,57.04
2022-08-01T16:47:02.601Z,56.30
2022-08-01T16:49:29.552Z,56.37
2022-08-01T16:51:56.440Z,57.41
2022-08-01T16:54:25.846Z,59.29
2022-08-01T16:56:53.640Z,59.87
2022-08-01T16:59:20.532Z,59.28
2022-08-01T17:01:56.935Z,59.54
2022-08-01T17:04:30.663Z,60.09
2022-08-01T17:06:57.517Z,60.45
2022-08-01T17:09:24.369Z,59.33
2022-08-01T17:11:51.228Z,60.75
2022-08-01T17:14:18.058Z,61.69
2022-08-01T17:16:44.905Z,61.78
2022-08-01T17:19:11.757Z,61.50
2022-08-01T17:21:41.330Z,62.09
2022-08-01T17:24:08.824Z,60.20
2022-08-01T17:26:35.684Z,59.36
2022-08-01T17:29:02.499Z,58.88
2022-08-01T17:31:29.325Z,59.54
2022-08-01T17:33:56.170Z,58.52
2022-08-01T17:36:23.027Z,60.62
2022-08-01T17:38:49.884Z,62.76
2022-08-01T17:41:16.775Z,63.23
2022-08-01T17:43:43.702Z,62.13
2022-08-01T17:46:10.632Z,63.09
2022-08-01T17:48:37.495Z,58.75
2022-08-01T17:51:04.361Z,58.23
2022-08-01T17:53:31.229Z,58.34
2022-08-01T17:55:58.202Z,59.16
2022-08-01T17:58:33.025Z,60.09
2022-08-01T18:01:13.069Z,61.98
2022-08-01T18:03:40.863Z,62.10
2022-08-01T18:06:09.307Z,63.15
2022-08-01T18:08:36.296Z,62.64
2022-08-01T18:11:03.200Z,63.00
2022-08-01T18:13:30.115Z,63.57
2022-08-01T18:15:57.330Z,61.17
2022-08-01T18:18:33.568Z,61.28
2022-08-01T18:21:01.653Z,62.02
2022-08-01T18:23:28.535Z,59.92
2022-08-01T18:25:55.615Z,61.19
2022-08-01T18:28:31.261Z,61.27
2022-08-01T18:31:00.928Z,59.16
2022-08-01T18:33:27.805Z,58.19
2022-08-01T18:35:54.825Z,60.45
2022-08-01T18:38:24.657Z,59.13
2022-08-01T18:40:52.633Z,58.16
2022-08-01T18:43:19.490Z,60.40
2022-08-01T18:45:46.407Z,60.29
2022-08-01T18:48:13.251Z,62.98
2022-08-01T18:50:40.123Z,62.25
2022-08-01T18:53:07.059Z,62.09
2022-08-01T18:55:33.925Z,62.31
2022-08-01T18:58:00.780Z,62.28
2022-08-01T19:00:27.679Z,62.59
2022-08-01T19:02:54.515Z,63.31
2022-08-01T19:05:21.381Z,63.60
2022-08-01T19:08:06.170Z,64.45
2022-08-01T19:10:38.922Z,64.62
2022-08-01T19:13:06.142Z,64.90
2022-08-01T19:15:33.280Z,65.48
2022-08-01T19:18:00.414Z,65.48
2022-08-01T19:20:27.399Z,65.87
2022-08-01T19:22:54.603Z,65.80
2022-08-01T19:25:21.477Z,66.23
2022-08-01T19:27:49.834Z,65.93
2022-08-01T19:30:17.772Z,66.35
2022-08-01T19:32:45.726Z,66.38
2022-08-01T19:35:14.073Z,66.81
2022-08-01T19:37:41.625Z,67.02
2022-08-01T19:40:08.658Z,66.94
2022-08-01T19:42:39.377Z,67.17
2022-08-01T19:45:06.609Z,67.53
2022-08-01T19:47:56.052Z,68.04
2022-08-01T19:50:20.922Z,68.79
2022-08-01T19:52:51.426Z,68.86
2022-08-01T19:55:18.539Z,68.94
2022-08-01T19:58:10.657Z,69.07
2022-08-01T20:00:39.271Z,70.06
2022-08-01T20:03:07.136Z,70.11
2022-08-01T20:05:34.396Z,70.21
2022-08-01T20:08:01.507Z,70.30
2022-08-01T20:10:30.132Z,70.67
2022-08-01T20:12:57.148Z,70.88
2022-08-01T20:15:24.566Z,71.39
2022-08-01T20:17:51.384Z,71.58
2022-08-01T20:20:18.321Z,71.58
2022-08-01T20:22:46.226Z,71.95
2022-08-01T20:25:13.112Z,72.34
2022-08-01T20:27:41.966Z,72.11
2022-08-01T20:30:09.173Z,72.41
2022-08-01T20:32:37.509Z,73.00
2022-08-01T20:35:04.516Z,72.66
2022-08-01T20:38:06.672Z,72.91
2022-08-01T20:40:21.945Z,72.92
2022-08-01T20:42:52.222Z,73.06
2022-08-01T20:45:19.204Z,73.59
2022-08-01T20:47:46.137Z,73.68
2022-08-01T20:50:27.183Z,73.71
2022-08-01T20:52:59.880Z,74.13
2022-08-01T20:55:33.111Z,74.50
2022-08-01T20:58:03.263Z,74.84
2022-08-01T21:00:30.885Z,75.07
2022-08-01T21:03:18.730Z,75.04
2022-08-01T21:05:56.053Z,74.91
2022-08-01T21:08:35.258Z,75.52
2022-08-01T21:11:03.179Z,75.17
2022-08-01T21:13:36.001Z,75.42
2022-08-01T21:16:23.836Z,75.56
2022-08-01T21:19:18.090Z,75.72
2022-08-01T21:21:43.919Z,75.80
2022-08-01T21:24:22.924Z,76.23
2022-08-01T21:26:50.115Z,76.01
2022-08-01T21:29:18.175Z,76.70
2022-08-01T21:31:46.015Z,76.88
2022-08-01T21:34:14.594Z,77.09
2022-08-01T21:36:43.882Z,76.88
2022-08-01T21:39:10.896Z,77.25
2022-08-01T21:41:56.605Z,77.12
2022-08-01T21:44:28.721Z,77.01
2022-08-01T21:46:59.902Z,77.45
2022-08-01T21:49:27.603Z,78.50
2022-08-01T21:51:59.735Z,78.68
2022-08-01T21:54:45.851Z,77.86
2022-08-01T21:57:38.337Z,77.72
2022-08-01T22:00:09.676Z,78.38
2022-08-01T22:02:44.577Z,78.63
2022-08-01T22:05:12.384Z,78.69
2022-08-01T22:07:44.295Z,79.38
2022-08-01T22:10:13.038Z,78.68
2022-08-01T22:12:39.951Z,78.67
2022-08-01T22:15:07.278Z,78.19
2022-08-01T22:17:34.715Z,78.36
2022-08-01T22:20:01.830Z,78.23
2022-08-01T22:22:52.030Z,80.73
2022-08-01T22:25:17.394Z,81.02
2022-08-01T22:28:06.674Z,81.38
2022-08-01T22:30:31.971Z,81.79
2022-08-01T22:33:07.903Z,82.61
2022-08-01T22:35:43.332Z,83.16
2022-08-01T22:38:10.295Z,82.60
2022-08-01T22:40:39.292Z,82.70
2022-08-01T22:43:13.380Z,83.32
2022-08-01T22:45:56.089Z,83.87
2022-08-01T22:48:22.909Z,83.44
2022-08-01T22:50:50.530Z,83.66
2022-08-01T22:53:24.042Z,84.26
2022-08-01T22:55:59.210Z,83.78
2022-08-01T22:58:28.307Z,84.33
2022-08-01T23:00:59.661Z,84.56
2022-08-01T23:03:33.639Z,85.50
2022-08-01T23:06:00.456Z,85.57
2022-08-01T23:08:27.530Z,86.01
2022-08-01T23:10:55.051Z,86.74
2022-08-01T23:13:22.653Z,85.81
2022-08-01T23:15:52.299Z,85.39
2022-08-01T23:18:21.060Z,86.20
2022-08-01T23:20:48.439Z,86.08
2022-08-01T23:23:15.609Z,86.91
2022-08-01T23:25:43.547Z,87.18
2022-08-01T23:28:11.370Z,88.62
2022-08-01T23:30:38.700Z,88.01
2022-08-01T23:33:05.864Z,87.99
2022-08-01T23:35:35.470Z,87.75
2022-08-01T23:38:06.212Z,86.81
2022-08-01T23:40:33.797Z,87.75
2022-08-01T23:43:01.748Z,88.24
2022-08-01T23:45:28.580Z,87.00
2022-08-01T23:48:15.824Z,87.22
2022-08-01T23:50:42.755Z,87.27
2022-08-01T23:53:09.617Z,87.66
2022-08-01T23:55:37.940Z,87.97
2022-08-01T23:58:05.330Z,88.76
